ENGLEBRIGHT (USACE) (ENG)

Elevation: 551' · YUBA R basin · Operator: US Army Corps of Engineers

Provisional data, subject to change.
Query executed Wednesday at 21:55:32

Select a sensor type for a plot of data.
Note: Reservoir Flows are daily averages.

Earlier

Date RES ELE    STORAGE    RES CHG    OUTFLOW    INFLOW    PPT INC    TEMP MN    TEMP MX   
 FEET   AF   AF   CFS   CFS   INCHES   DEG F   DEG F  
11/08/2016 520.19 64578 23 -- 864 0.00 54 74
11/09/2016 520.19 64578 0 -- 825 0.00 53 76
11/10/2016 519.16 63792 -786 -- 428 0.00 57 75
11/11/2016 518.81 63527 -265 -- 696 0.00 56 74
11/12/2016 518.25 63104 -- -- 610 0.00 12 23
11/13/2016 518.33 63165 -- -- 839 0.00 11 23
11/14/2016 518.12 63007 -158 -- 729 0.00 11 23
11/15/2016 518.46 63263 -- -- 921 0.00 10 20
11/16/2016 520.18 64570 1307 -- 1421 5.39 5 14
11/17/2016 522.82 66618 2048 -- 1815 0.00 3 15
11/18/2016 522.71 66532 -86 -- -- 0.00 5 18
11/19/2016 522.30 66211 -- -- 642 0.89 7 11
11/20/2016 524.23 67732 -- -- 1820 0.62 10 14
11/21/2016 523.51 67161 -571 -- 1324 0.08 7 14
11/22/2016 521.64 65697 -1464 -- 868 0.17 5 13
11/23/2016 520.50 64816 -881 -- -- 0.31 6 14
11/24/2016 521.85 65860 1044 -- 1317 0.00 3 14
11/25/2016 521.75 65782 -78 -- -- 0.00 5 12
11/26/2016 522.11 66062 280 -- 1025 0.86 6 11
11/27/2016 523.51 67161 1099 -- 1518 0.07 5 12
11/28/2016 523.01 66767 -394 -- 410 0.06 5 11
11/29/2016 522.99 66752 -15 -- 1200 0.00 3 12
11/30/2016 523.09 66830 78 -- 1250 0.00 4 11
12/01/2016 522.40 66289 -541 -- 885 0.00 2 15
12/02/2016 522.23 66156 -133 -- 983 0.00 4 14
12/03/2016 521.55 65627 -529 -- 781 0.00 2 13
12/04/2016 520.71 64978 -649 -- 719 0.00 3 13
12/05/2016 519.84 64310 -668 -- 713 0.00 3 11
12/06/2016 519.22 63838 -472 -- 813 0.00 1 11
12/07/2016 -- -- -- -- -- -- -- --

Later | Latest

Warning! This data is preliminary and subject to revision.

Show ENG Map | Plot ENG Data | 1 Month ENG Data | Real-Time ENG Data | ENG Info